Time;durP1;ratioP1;P1;durP2;ratioP2;P2;SDS_P1;SDS_P2;PMS_P1;PMS_P2;Temp;Humidity;BMP_temperature;BMP_pressure;BME280_temperature;BME280_humidity;BME280_pressure;Samples;Min_cycle;Max_cycle;Signal;HPM_P1;HPM_P2
2024/02/17 00:01:56;;;;;;;20.13;14.27;;;;;;;9.09;100.00;99351.41;5001395;28;20432;-85
2024/02/17 00:04:22;;;;;;;24.00;15.55;;;;;;;9.38;99.97;99373.75;4999432;28;20171;-85
2024/02/17 00:06:47;;;;;;;26.00;17.00;;;;;;;9.22;100.00;99385.06;5027999;28;20113;-84
2024/02/17 00:09:13;;;;;;;22.33;14.77;;;;;;;9.23;99.91;99387.50;5031177;28;20037;-85
2024/02/17 00:11:38;;;;;;;22.92;15.75;;;;;;;9.04;100.00;99354.75;5016338;28;20445;-84
2024/02/17 00:14:03;;;;;;;25.33;17.02;;;;;;;9.03;99.33;99344.34;5018969;28;20079;-85
2024/02/17 00:16:29;;;;;;;22.63;15.73;;;;;;;9.29;100.00;99391.09;5016238;28;20073;-85
2024/02/17 00:18:55;;;;;;;26.85;16.85;;;;;;;9.28;99.78;99397.47;5032738;28;20030;-85
2024/02/17 00:21:21;;;;;;;25.77;17.08;;;;;;;9.12;99.59;99374.94;5015816;28;20119;-85
2024/02/17 00:23:46;;;;;;;27.55;17.63;;;;;;;9.19;100.00;99390.84;5028629;28;20130;-85
2024/02/17 00:26:16;;;;;;;26.77;17.60;;;;;;;9.17;99.65;99379.59;5029918;28;20026;-84
2024/02/17 00:28:42;;;;;;;26.27;15.98;;;;;;;9.14;100.00;99398.69;5026988;28;20052;-85
2024/02/17 00:31:08;;;;;;;26.92;17.83;;;;;;;9.10;100.00;99395.66;5036595;28;20464;-85
2024/02/17 00:33:33;;;;;;;29.08;17.75;;;;;;;9.16;99.97;99388.63;5033886;28;20033;-85
2024/02/17 00:35:59;;;;;;;31.33;19.48;;;;;;;8.97;100.00;99386.00;5025522;28;20508;-84
2024/02/17 00:38:24;;;;;;;26.25;16.55;;;;;;;8.84;99.73;99367.53;5018108;28;20037;-83
2024/02/17 00:40:49;;;;;;;30.00;18.05;;;;;;;9.02;100.00;99391.44;4996248;28;20059;-85
2024/02/17 00:43:15;;;;;;;30.33;17.90;;;;;;;9.17;99.89;99404.38;5019978;28;20076;-84
2024/02/17 00:45:43;;;;;;;30.77;19.00;;;;;;;8.90;100.00;99395.91;5030190;28;20632;-85
2024/02/17 00:48:09;;;;;;;31.20;17.25;;;;;;;9.03;100.00;99410.91;5020643;28;20048;-85
2024/02/17 00:50:35;;;;;;;30.67;18.48;;;;;;;9.03;100.00;99405.59;5027671;28;20173;-83
2024/02/17 00:53:00;;;;;;;33.17;18.88;;;;;;;8.73;100.00;99367.47;5018188;28;20595;-85
2024/02/17 00:55:25;;;;;;;28.35;16.55;;;;;;;8.88;100.00;99399.84;5008017;28;20044;-85
2024/02/17 00:57:51;;;;;;;29.10;17.83;;;;;;;8.98;100.00;99406.25;5036167;28;20022;-85
2024/02/17 01:00:17;;;;;;;31.15;18.02;;;;;;;8.90;99.78;99393.25;5012364;28;20040;-85
2024/02/17 01:02:42;;;;;;;29.05;18.35;;;;;;;9.03;99.49;99409.06;5017582;28;20662;-85
2024/02/17 01:05:07;;;;;;;34.60;19.15;;;;;;;9.10;99.41;99414.31;5019736;28;20029;-85
2024/02/17 01:07:33;;;;;;;30.00;18.27;;;;;;;9.05;99.12;99420.31;5038145;28;20064;-85
2024/02/17 01:09:58;;;;;;;28.55;16.73;;;;;;;9.02;99.68;99428.72;5038546;28;20063;-85
2024/02/17 01:12:24;;;;;;;32.13;19.48;;;;;;;8.74;99.79;99404.50;5036679;28;20036;-85
2024/02/17 01:14:50;;;;;;;30.70;19.80;;;;;;;9.09;99.52;99427.84;5031678;28;20045;-85
2024/02/17 01:17:16;;;;;;;29.67;17.38;;;;;;;8.68;99.20;99389.44;5033686;28;20037;-83
2024/02/17 01:19:41;;;;;;;28.55;17.02;;;;;;;8.84;99.14;99412.78;5017334;28;20038;-85
2024/02/17 01:22:07;;;;;;;30.27;17.38;;;;;;;8.92;99.22;99425.78;5033848;28;20033;-85
2024/02/17 01:24:32;;;;;;;30.70;17.25;;;;;;;8.76;99.82;99417.56;4994740;28;20038;-84
2024/02/17 01:26:58;;;;;;;32.30;18.30;;;;;;;9.06;99.34;99451.19;5038501;28;20033;-84
2024/02/17 01:29:23;;;;;;;28.83;17.95;;;;;;;8.68;99.35;99402.75;5032815;28;20038;-85
2024/02/17 01:31:51;;;;;;;30.27;18.17;;;;;;;8.30;99.22;99322.34;5014775;28;20037;-85
2024/02/17 01:34:17;;;;;;;34.50;19.90;;;;;;;9.01;99.83;99437.78;5015829;28;20064;-85
2024/02/17 01:36:43;;;;;;;31.92;18.85;;;;;;;8.98;99.41;99446.19;5011892;28;20438;-85
2024/02/17 01:39:09;;;;;;;31.60;18.58;;;;;;;8.88;99.63;99405.97;5013718;28;20033;-85
2024/02/17 01:41:35;;;;;;;34.25;19.30;;;;;;;8.66;99.30;99406.66;5021900;28;20116;-85
2024/02/17 01:44:00;;;;;;;31.10;18.60;;;;;;;8.96;100.00;99450.09;5008864;28;20103;-85
2024/02/17 01:46:26;;;;;;;34.83;19.30;;;;;;;8.89;100.00;99444.03;5038075;28;20036;-85
2024/02/17 01:48:52;;;;;;;35.92;21.27;;;;;;;8.89;100.00;99460.84;5022136;28;20123;-85
2024/02/17 01:51:18;;;;;;;37.22;20.38;;;;;;;8.96;100.00;99458.91;5037205;28;20390;-85
2024/02/17 01:53:43;;;;;;;34.97;20.65;;;;;;;8.91;99.69;99450.78;5035566;28;20068;-86
2024/02/17 01:56:10;;;;;;;36.15;21.17;;;;;;;8.97;99.45;99462.41;5042335;28;20040;-85
2024/02/17 01:58:36;;;;;;;41.33;22.33;;;;;;;8.84;100.00;99466.03;5043969;28;20033;-85
2024/02/17 02:01:02;;;;;;;41.60;23.20;;;;;;;8.93;100.00;99470.00;5037226;28;20117;-85
2024/02/17 02:03:28;;;;;;;44.63;24.17;;;;;;;8.67;100.00;99446.34;5049303;28;20056;-86
2024/02/17 02:05:58;;;;;;;46.42;24.73;;;;;;;8.76;100.00;99447.69;5018195;28;20037;-84
2024/02/17 02:08:23;;;;;;;43.38;23.67;;;;;;;8.76;100.00;99460.16;5021769;28;20033;-85
2024/02/17 02:10:49;;;;;;;44.83;24.65;;;;;;;8.29;100.00;99403.16;5036477;28;20044;-85
2024/02/17 02:13:14;;;;;;;47.72;26.67;;;;;;;8.46;100.00;99432.66;5003665;28;20048;-85
2024/02/17 02:15:43;;;;;;;49.25;25.85;;;;;;;8.69;100.00;99465.56;5019015;28;20508;-85
2024/02/17 02:18:10;;;;;;;53.35;26.90;;;;;;;8.56;100.00;99441.75;5035353;28;20025;-85
2024/02/17 02:20:37;;;;;;;49.60;27.23;;;;;;;8.79;100.00;99473.84;5020764;28;20030;-83
2024/02/17 02:23:02;;;;;;;53.20;28.98;;;;;;;8.70;100.00;99461.06;5033662;28;20030;-85
2024/02/17 02:25:31;;;;;;;47.20;25.05;;;;;;;8.46;100.00;99427.34;5037049;28;20036;-85
2024/02/17 02:27:57;;;;;;;46.58;25.40;;;;;;;8.30;100.00;99400.28;5036881;28;20037;-85
2024/02/17 02:30:23;;;;;;;48.97;27.35;;;;;;;8.66;100.00;99486.47;5031582;28;20485;-85
2024/02/17 02:32:49;;;;;;;55.80;28.55;;;;;;;8.66;100.00;99454.56;5037054;28;20025;-85
2024/02/17 02:35:14;;;;;;;49.40;28.13;;;;;;;8.62;100.00;99475.47;5018196;28;20025;-85
2024/02/17 02:37:40;;;;;;;52.13;28.20;;;;;;;8.64;99.74;99459.28;5016754;28;20036;-85
2024/02/17 02:40:06;;;;;;;54.88;28.08;;;;;;;8.79;100.00;99499.66;5020964;28;20026;-85
2024/02/17 02:42:32;;;;;;;48.03;25.42;;;;;;;8.46;100.00;99446.78;5039290;28;20120;-84
2024/02/17 02:44:57;;;;;;;47.50;26.80;;;;;;;8.25;100.00;99452.47;5018356;28;20064;-85
2024/02/17 02:47:23;;;;;;;55.20;29.95;;;;;;;8.60;100.00;99466.91;5044290;28;20032;-85
2024/02/17 02:49:49;;;;;;;53.22;29.25;;;;;;;8.68;99.31;99481.75;5032842;28;20436;-85
2024/02/17 02:52:15;;;;;;;53.83;29.08;;;;;;;8.76;100.00;99506.22;5044058;28;20044;-85
2024/02/17 02:54:41;;;;;;;51.55;28.60;;;;;;;8.74;100.00;99505.63;5037828;28;20047;-85
2024/02/17 02:57:06;;;;;;;54.05;27.38;;;;;;;8.85;99.85;99502.25;5037379;28;20080;-84
2024/02/17 02:59:32;;;;;;;50.33;27.95;;;;;;;8.82;99.83;99508.00;5017513;28;20075;-85
2024/02/17 03:01:57;;;;;;;52.45;29.08;;;;;;;8.79;99.37;99495.16;5034945;28;20034;-85
2024/02/17 03:04:23;;;;;;;48.85;26.70;;;;;;;8.83;99.39;99514.16;5022252;28;20043;-85
2024/02/17 03:06:48;;;;;;;46.28;26.50;;;;;;;8.79;99.89;99508.47;5034266;28;20108;-86
2024/02/17 03:09:13;;;;;;;46.28;26.75;;;;;;;8.40;99.34;99452.16;5014684;28;20030;-86
2024/02/17 03:11:39;;;;;;;46.85;27.52;;;;;;;8.57;100.00;99483.28;5032291;28;20744;-85
2024/02/17 03:14:05;;;;;;;54.20;27.00;;;;;;;8.78;99.84;99503.38;5012351;28;20053;-85
2024/02/17 03:16:31;;;;;;;49.60;27.83;;;;;;;8.67;100.00;99504.88;5021589;28;20045;-85
2024/02/17 03:18:56;;;;;;;51.28;27.63;;;;;;;8.60;99.86;99484.72;5049464;28;20037;-85
2024/02/17 03:21:21;;;;;;;51.67;28.48;;;;;;;8.55;99.91;99480.03;5000348;28;20476;-85
2024/02/17 03:23:47;;;;;;;52.10;28.73;;;;;;;8.66;100.00;99511.25;5032066;28;20033;-85
2024/02/17 03:26:13;;;;;;;56.70;31.67;;;;;;;8.55;100.00;99508.50;5037660;28;20026;-85
2024/02/17 03:28:38;;;;;;;54.13;30.60;;;;;;;8.59;100.00;99513.16;5031525;28;20033;-84
2024/02/17 03:31:04;;;;;;;59.08;32.08;;;;;;;8.68;100.00;99517.16;5018563;28;20034;-85
2024/02/17 03:33:30;;;;;;;51.95;29.35;;;;;;;8.26;100.00;99481.53;5029951;28;20179;-85
2024/02/17 03:35:55;;;;;;;58.60;31.45;;;;;;;8.52;100.00;99541.66;5014776;28;20112;-85
2024/02/17 03:38:21;;;;;;;57.63;31.80;;;;;;;8.58;100.00;99548.78;5027141;28;20480;-85
2024/02/17 03:40:46;;;;;;;58.35;33.15;;;;;;;8.31;100.00;99523.44;5035728;28;20485;-85
2024/02/17 03:43:12;;;;;;;59.65;33.28;;;;;;;8.71;99.84;99561.16;5000275;28;20033;-85
2024/02/17 03:45:37;;;;;;;57.97;30.73;;;;;;;8.62;99.88;99562.47;5030803;28;20479;-85
2024/02/17 03:48:03;;;;;;;59.28;32.03;;;;;;;8.61;99.67;99560.81;4994276;28;21180;-85
2024/02/17 03:50:28;;;;;;;54.65;29.45;;;;;;;8.65;99.64;99580.66;5032543;28;20120;-85
2024/02/17 03:52:53;;;;;;;60.13;30.92;;;;;;;8.36;99.48;99560.84;5011021;28;20073;-84
2024/02/17 03:55:19;;;;;;;53.05;28.95;;;;;;;8.29;100.00;99570.72;5015832;28;20036;-85
2024/02/17 03:57:44;;;;;;;60.63;31.58;;;;;;;8.39;100.00;99551.63;5016210;28;20029;-84
2024/02/17 04:00:13;;;;;;;56.38;29.90;;;;;;;8.23;100.00;99531.66;5031618;28;20112;-85
2024/02/17 04:02:39;;;;;;;57.15;32.17;;;;;;;8.65;100.00;99596.63;5010293;28;20044;-85
2024/02/17 04:05:05;;;;;;;56.30;32.00;;;;;;;8.55;99.86;99578.47;5030164;28;20034;-85
2024/02/17 04:07:30;;;;;;;56.95;31.15;;;;;;;8.46;99.59;99560.34;5011202;28;20045;-85
2024/02/17 04:09:55;;;;;;;57.53;32.25;;;;;;;8.58;99.09;99564.75;5016566;28;20025;-85
2024/02/17 04:12:21;;;;;;;63.10;32.00;;;;;;;8.76;98.93;99595.91;4999438;28;20036;-85
2024/02/17 04:14:46;;;;;;;57.15;32.65;;;;;;;8.83;98.55;99602.81;5018777;28;20037;-85
2024/02/17 04:17:12;;;;;;;57.85;30.13;;;;;;;8.19;99.21;99520.63;5014826;28;20033;-85
2024/02/17 04:19:38;;;;;;;53.30;28.92;;;;;;;8.71;98.94;99593.91;5037668;28;20021;-85
2024/02/17 04:22:04;;;;;;;50.13;28.60;;;;;;;8.70;98.97;99607.41;5031185;28;20041;-85
2024/02/17 04:24:29;;;;;;;46.67;27.70;;;;;;;8.52;98.98;99581.56;5030527;28;20041;-85
2024/02/17 04:26:56;;;;;;;51.95;29.88;;;;;;;8.68;98.66;99601.50;5017274;28;20129;-86
2024/02/17 04:29:21;;;;;;;48.15;28.35;;;;;;;8.69;99.27;99617.25;5033669;28;20029;-84
2024/02/17 04:31:47;;;;;;;53.85;29.95;;;;;;;8.52;99.27;99580.78;5030837;28;20036;-85
2024/02/17 04:34:12;;;;;;;55.55;30.15;;;;;;;8.77;99.05;99632.97;5032448;28;20090;-85
2024/02/17 04:36:38;;;;;;;49.72;28.17;;;;;;;8.60;98.61;99610.59;5035588;28;20024;-84
2024/02/17 04:39:04;;;;;;;53.63;30.15;;;;;;;8.67;98.77;99635.28;5036587;28;20025;-85
2024/02/17 04:41:30;;;;;;;53.55;28.35;;;;;;;8.40;98.68;99596.63;5041519;28;20044;-85
2024/02/17 04:43:55;;;;;;;49.33;27.45;;;;;;;8.57;99.21;99647.44;5003022;28;20037;-86
2024/02/17 04:46:21;;;;;;;51.13;27.90;;;;;;;8.62;99.19;99645.78;5034706;28;20115;-85
2024/02/17 04:48:46;;;;;;;51.75;29.05;;;;;;;8.68;99.46;99649.41;4998867;28;20033;-85
2024/02/17 04:51:11;;;;;;;51.95;29.25;;;;;;;8.45;98.81;99625.22;5036004;28;20030;-85
2024/02/17 04:53:37;;;;;;;54.92;27.67;;;;;;;8.49;99.70;99653.84;5016140;28;20040;-85
2024/02/17 04:56:02;;;;;;;53.72;31.92;;;;;;;8.56;99.54;99659.91;5018010;28;20092;-84
2024/02/17 04:58:28;;;;;;;50.78;29.10;;;;;;;8.21;99.27;99610.84;5032289;28;20053;-85
2024/02/17 05:00:53;;;;;;;51.97;27.85;;;;;;;8.14;99.74;99596.75;5032781;28;20060;-85
2024/02/17 05:03:19;;;;;;;48.45;27.10;;;;;;;8.52;99.62;99661.38;5013618;28;20029;-84
2024/02/17 05:05:44;;;;;;;53.22;30.27;;;;;;;8.50;99.75;99652.81;5029106;28;20079;-85
2024/02/17 05:08:10;;;;;;;56.63;31.70;;;;;;;8.45;99.51;99660.63;5035865;28;20034;-85
2024/02/17 05:10:37;;;;;;;57.58;28.83;;;;;;;8.55;99.18;99674.28;5045980;28;20132;-85
2024/02/17 05:13:03;;;;;;;52.90;29.92;;;;;;;8.39;99.55;99653.50;5039854;28;20124;-84
2024/02/17 05:15:28;;;;;;;54.38;28.30;;;;;;;8.44;99.59;99680.28;5015935;28;20033;-85
2024/02/17 05:17:54;;;;;;;53.88;29.60;;;;;;;7.92;99.22;99598.94;5033979;28;20029;-85
2024/02/17 05:20:19;;;;;;;54.83;28.83;;;;;;;8.08;99.71;99627.66;5036175;28;20576;-85
2024/02/17 05:22:45;;;;;;;53.70;29.77;;;;;;;8.01;99.34;99607.47;5018476;28;20087;-85
2024/02/17 05:25:10;;;;;;;48.80;28.75;;;;;;;8.58;99.08;99686.34;5041448;28;20033;-86
2024/02/17 05:27:36;;;;;;;55.53;29.70;;;;;;;7.90;99.53;99608.16;5052135;28;20025;-84
2024/02/17 05:30:02;;;;;;;56.50;29.70;;;;;;;8.62;98.93;99700.84;5024632;28;20021;-85
2024/02/17 05:32:28;;;;;;;57.30;31.40;;;;;;;8.54;99.43;99701.88;5046886;28;20064;-85
2024/02/17 05:34:54;;;;;;;58.25;29.30;;;;;;;8.69;98.88;99706.94;5042137;28;20091;-85
2024/02/17 05:37:19;;;;;;;51.28;29.27;;;;;;;8.38;99.09;99677.66;5039513;28;20041;-85
2024/02/17 05:39:46;;;;;;;56.90;27.15;;;;;;;8.42;99.74;99702.78;5005366;28;20031;-84
2024/02/17 05:42:12;;;;;;;48.28;27.25;;;;;;;8.58;99.51;99720.91;5038354;28;20022;-85
2024/02/17 05:44:37;;;;;;;54.03;28.77;;;;;;;8.21;98.57;99658.69;5037288;28;20037;-85
2024/02/17 05:47:02;;;;;;;53.90;29.02;;;;;;;7.96;98.78;99628.56;5040867;28;20354;-85
2024/02/17 05:49:28;;;;;;;55.95;28.23;;;;;;;8.48;99.26;99718.72;5048035;28;20033;-85
2024/02/17 05:51:56;;;;;;;49.03;27.70;;;;;;;8.62;99.23;99728.25;5021385;28;20034;-85
2024/02/17 05:54:21;;;;;;;50.90;28.70;;;;;;;8.48;98.59;99707.25;5007952;28;20025;-85
2024/02/17 05:56:49;;;;;;;54.63;28.02;;;;;;;8.62;98.10;99736.25;5040818;28;20435;-84
2024/02/17 05:59:14;;;;;;;50.53;27.13;;;;;;;8.36;98.92;99703.66;5039338;28;20122;-84
2024/02/17 06:01:41;;;;;;;50.08;28.02;;;;;;;8.55;98.97;99739.97;5022385;28;20034;-85
2024/02/17 06:04:07;;;;;;;56.22;29.17;;;;;;;8.59;98.64;99751.81;5043642;28;20021;-85
2024/02/17 06:06:33;;;;;;;47.72;27.40;;;;;;;8.63;98.20;99745.84;5022699;28;20060;-85
2024/02/17 06:08:58;;;;;;;51.40;29.92;;;;;;;8.41;98.06;99722.47;5037223;28;20178;-85
2024/02/17 06:11:24;;;;;;;46.80;26.75;;;;;;;8.53;98.97;99756.16;5038818;28;20025;-85
2024/02/17 06:13:49;;;;;;;53.53;27.67;;;;;;;8.08;98.39;99677.38;5040268;28;20140;-85
2024/02/17 06:16:18;;;;;;;51.10;29.70;;;;;;;8.52;99.18;99767.00;5002339;28;20084;-85
2024/02/17 06:21:28;;;;;;;46.88;26.73;;;;;;;8.71;98.58;99769.56;5034846;28;20063;-86
2024/02/17 06:23:55;;;;;;;48.85;27.45;;;;;;;8.25;98.61;99724.59;5033863;28;20463;-84
2024/02/17 06:26:31;;;;;;;52.08;27.65;;;;;;;8.47;99.43;99780.13;5024950;28;20033;-85
2024/02/17 06:28:58;;;;;;;54.17;28.88;;;;;;;8.60;98.90;99780.88;5020229;28;20041;-85
2024/02/17 06:31:24;;;;;;;50.47;26.90;;;;;;;8.60;98.58;99778.22;5040705;28;20078;-85
2024/02/17 06:33:50;;;;;;;52.88;28.98;;;;;;;8.55;98.68;99771.88;5037628;28;21206;-85
2024/02/17 06:36:16;;;;;;;46.92;26.85;;;;;;;7.85;98.90;99703.63;5025769;28;20017;-85
2024/02/17 06:38:42;;;;;;;52.53;29.05;;;;;;;8.55;98.89;99794.00;5059960;28;20036;-85
2024/02/17 06:41:09;;;;;;;45.83;24.98;;;;;;;8.32;99.81;99783.06;5048683;28;20118;-86
2024/02/17 06:43:35;;;;;;;54.45;29.60;;;;;;;8.45;98.92;99777.69;5035483;28;20026;-85
2024/02/17 06:46:00;;;;;;;57.72;29.42;;;;;;;8.61;98.74;99797.66;5036762;28;20033;-85
2024/02/17 06:48:26;;;;;;;49.28;27.15;;;;;;;8.46;98.30;99792.59;5047326;28;20045;-84
2024/02/17 06:50:55;;;;;;;50.05;26.75;;;;;;;8.32;98.61;99776.91;5034773;28;20032;-83
2024/02/17 06:53:20;;;;;;;51.08;28.08;;;;;;;8.52;99.03;99799.72;5020363;28;20067;-85
2024/02/17 06:55:46;;;;;;;52.58;29.25;;;;;;;8.21;98.63;99765.06;5034746;28;20552;-84
2024/02/17 06:58:12;;;;;;;49.78;26.33;;;;;;;8.35;99.29;99795.91;5017499;28;20131;-85
2024/02/17 07:00:37;;;;;;;52.08;25.40;;;;;;;8.01;98.70;99743.88;5033516;28;20112;-87
2024/02/17 07:03:04;;;;;;;51.53;28.45;;;;;;;8.59;98.55;99829.78;5026708;28;20121;-87
2024/02/17 07:05:31;;;;;;;50.08;27.38;;;;;;;8.51;99.30;99830.03;5007976;28;20037;-87
2024/02/17 07:07:57;;;;;;;54.22;28.50;;;;;;;8.28;98.66;99798.59;5029955;28;20037;-86
2024/02/17 07:10:22;;;;;;;48.83;27.63;;;;;;;8.56;99.27;99832.88;5046004;28;20087;-86
2024/02/17 07:12:48;;;;;;;48.17;28.10;;;;;;;8.45;99.58;99840.72;5029853;28;20104;-87
2024/02/17 07:15:13;;;;;;;55.83;29.83;;;;;;;8.12;98.92;99792.91;5009425;28;20068;-87
2024/02/17 07:17:39;;;;;;;48.50;27.17;;;;;;;8.37;98.51;99812.50;5013344;28;20033;-87
2024/02/17 07:20:05;;;;;;;51.53;28.10;;;;;;;8.46;98.87;99842.31;5010402;28;20034;-86
2024/02/17 07:22:31;;;;;;;56.42;27.50;;;;;;;7.84;98.93;99757.81;5030222;28;20045;-87
2024/02/17 07:24:56;;;;;;;52.28;28.30;;;;;;;8.53;99.19;99848.44;4997710;28;20069;-86
2024/02/17 07:27:23;;;;;;;56.08;29.42;;;;;;;8.03;98.98;99779.03;5027247;28;20037;-86
2024/02/17 07:29:48;;;;;;;51.47;27.90;;;;;;;8.35;98.89;99819.88;5028364;28;20039;-86
2024/02/17 07:32:14;;;;;;;53.10;27.25;;;;;;;8.18;99.17;99808.03;4999104;28;20029;-86
2024/02/17 07:34:41;;;;;;;50.33;27.08;;;;;;;8.49;98.40;99848.06;5012717;28;20497;-85
2024/02/17 07:37:07;;;;;;;45.00;27.30;;;;;;;8.10;98.63;99784.34;5032732;28;20025;-86
2024/02/17 07:39:37;;;;;;;55.22;30.27;;;;;;;8.07;97.94;99776.75;5014373;28;20155;-86
2024/02/17 07:42:03;;;;;;;54.67;28.85;;;;;;;8.56;98.11;99877.31;5039436;28;20390;-86
2024/02/17 07:44:28;;;;;;;50.08;28.27;;;;;;;8.60;98.69;99884.66;5016793;28;20055;-86
2024/02/17 07:46:53;;;;;;;54.90;28.30;;;;;;;8.47;99.05;99882.03;5019978;28;20025;-86
2024/02/17 07:49:19;;;;;;;55.75;29.58;;;;;;;8.69;97.92;99896.69;5047285;28;20045;-87
2024/02/17 07:51:45;;;;;;;63.55;30.38;;;;;;;8.80;96.70;99892.56;5021934;28;20452;-86
2024/02/17 07:54:10;;;;;;;57.88;31.38;;;;;;;8.25;97.64;99827.44;5014762;28;20697;-86
2024/02/17 07:56:35;;;;;;;60.50;30.02;;;;;;;8.66;97.91;99905.09;5001888;28;20032;-86
2024/02/17 07:59:01;;;;;;;55.40;29.60;;;;;;;8.61;98.16;99909.41;5030076;28;20029;-86
2024/02/17 08:01:27;;;;;;;60.80;32.13;;;;;;;8.68;98.15;99913.69;5031506;28;20033;-86
2024/02/17 08:03:52;;;;;;;58.40;32.15;;;;;;;8.45;97.83;99857.50;5031821;28;20026;-86
2024/02/17 08:06:21;;;;;;;54.78;30.88;;;;;;;8.81;97.68;99910.16;5032197;28;20163;-86
2024/02/17 08:08:47;;;;;;;48.00;29.45;;;;;;;8.49;97.77;99889.81;5035404;28;20037;-85
2024/02/17 08:11:13;;;;;;;48.75;26.85;;;;;;;8.59;97.90;99895.50;5015344;28;20080;-87
2024/02/17 08:13:39;;;;;;;48.33;27.88;;;;;;;8.73;98.64;99939.69;5034438;28;20029;-87
2024/02/17 08:16:04;;;;;;;50.85;29.20;;;;;;;8.52;98.41;99886.75;5021088;28;20103;-87
2024/02/17 08:18:30;;;;;;;51.45;29.08;;;;;;;8.77;98.17;99946.22;5020583;28;20037;-87
2024/02/17 08:21:00;;;;;;;52.05;28.75;;;;;;;8.21;98.95;99871.44;5028598;28;20025;-87
2024/02/17 08:23:26;;;;;;;47.15;27.48;;;;;;;8.71;98.63;99939.91;5036417;28;20021;-86
2024/02/17 08:25:53;;;;;;;52.20;29.48;;;;;;;8.67;98.26;99924.56;5038230;28;20025;-86
2024/02/17 08:28:18;;;;;;;51.58;29.25;;;;;;;8.73;98.19;99937.03;5024471;28;20370;-87
2024/02/17 08:30:45;;;;;;;57.65;30.63;;;;;;;8.82;97.85;99967.72;5033809;28;20053;-87
2024/02/17 08:33:10;;;;;;;53.83;30.90;;;;;;;8.44;97.96;99913.56;5037738;28;20035;-86
2024/02/17 08:35:37;;;;;;;52.08;29.63;;;;;;;8.38;99.14;99936.50;5018017;28;20064;-86
2024/02/17 08:38:03;;;;;;;45.03;29.35;;;;;;;8.51;98.51;99949.78;5019631;28;20627;-86
2024/02/17 08:40:28;;;;;;;54.47;27.92;;;;;;;8.30;98.69;99929.53;5014738;28;20588;-85
2024/02/17 08:42:54;;;;;;;44.72;26.80;;;;;;;8.62;98.55;99977.59;4999543;28;20046;-87
2024/02/17 08:45:19;;;;;;;52.58;27.65;;;;;;;8.71;98.54;99979.00;5020610;28;20086;-85
2024/02/17 08:47:44;;;;;;;47.40;26.70;;;;;;;8.76;98.47;99981.84;5020944;28;20040;-87
2024/02/17 08:50:10;;;;;;;50.67;26.88;;;;;;;8.46;98.76;99959.38;5034545;28;20021;-86
2024/02/17 08:52:35;;;;;;;50.00;26.65;;;;;;;8.66;98.73;99978.78;5037740;28;20033;-86
2024/02/17 08:55:01;;;;;;;48.05;27.70;;;;;;;8.77;98.42;99983.47;5020931;28;20033;-86
2024/02/17 08:57:26;;;;;;;46.72;25.45;;;;;;;8.24;98.52;99916.22;5038953;28;20045;-86
2024/02/17 08:59:52;;;;;;;41.50;25.17;;;;;;;8.65;98.40;99991.28;5031635;28;20034;-86
2024/02/17 09:02:18;;;;;;;50.08;25.70;;;;;;;8.35;99.33;99928.91;5034041;28;20029;-86
2024/02/17 09:04:45;;;;;;;43.92;25.10;;;;;;;8.23;99.47;99928.69;5019871;28;20040;-86
2024/02/17 09:07:11;;;;;;;43.55;25.45;;;;;;;8.75;99.34;99997.00;5037120;28;20033;-86
2024/02/17 09:09:36;;;;;;;43.65;26.45;;;;;;;8.79;99.47;100000.88;5041586;28;20400;-86
2024/02/17 09:12:02;;;;;;;42.10;24.33;;;;;;;8.61;98.37;99990.06;5023005;28;20095;-86
2024/02/17 09:14:33;;;;;;;41.30;24.05;;;;;;;8.36;98.48;99951.03;5036712;28;20025;-86
2024/02/17 09:16:59;;;;;;;46.30;25.42;;;;;;;8.66;98.59;99984.94;5038128;28;20021;-86
2024/02/17 09:19:25;;;;;;;44.22;24.70;;;;;;;8.73;98.22;99999.06;5053584;28;20026;-86
2024/02/17 09:21:51;;;;;;;39.72;23.95;;;;;;;8.85;97.79;100018.69;5028683;28;20065;-86
2024/02/17 09:24:19;;;;;;;49.45;25.48;;;;;;;8.69;98.65;100002.34;5016644;28;20034;-86
2024/02/17 09:26:45;;;;;;;44.90;25.42;;;;;;;8.67;98.51;100012.38;5019803;28;20396;-86
2024/02/17 09:29:11;;;;;;;45.15;23.50;;;;;;;8.89;98.27;100035.88;5037050;28;20463;-86
2024/02/17 09:31:36;;;;;;;40.75;23.33;;;;;;;8.73;98.89;100012.38;5039048;28;20025;-86
2024/02/17 09:34:02;;;;;;;42.83;24.55;;;;;;;8.83;98.31;100038.53;5054662;28;20461;-86
2024/02/17 09:36:28;;;;;;;41.67;22.50;;;;;;;8.55;98.01;100001.53;5022159;28;20026;-86
2024/02/17 09:38:53;;;;;;;49.40;27.00;;;;;;;8.26;97.39;99962.06;5016362;28;20025;-87
2024/02/17 09:41:19;;;;;;;46.17;26.00;;;;;;;8.35;97.71;99974.13;5016738;28;20033;-86
2024/02/17 09:43:45;;;;;;;48.55;26.38;;;;;;;8.85;97.99;100044.47;5041393;28;20049;-86
2024/02/17 09:46:12;;;;;;;48.33;26.92;;;;;;;8.85;98.29;100047.97;5038347;28;20033;-87
2024/02/17 09:48:38;;;;;;;48.83;25.63;;;;;;;8.51;97.73;100010.97;5034542;28;20029;-86
2024/02/17 09:51:06;;;;;;;41.40;24.58;;;;;;;8.85;97.37;100061.28;5040783;28;20389;-86
2024/02/17 09:53:32;;;;;;;38.28;21.25;;;;;;;8.88;97.54;100060.03;5047841;28;20030;-86
2024/02/17 09:56:05;;;;;;;44.35;26.52;;;;;;;8.91;97.27;100073.75;5021489;28;20034;-87
2024/02/17 09:58:30;;;;;;;39.78;24.55;;;;;;;8.55;97.21;100006.88;5028279;28;20046;-86
2024/02/17 10:00:59;;;;;;;43.60;24.67;;;;;;;8.99;97.80;100072.72;5019375;28;20034;-86
2024/02/17 10:03:25;;;;;;;45.00;24.27;;;;;;;8.86;97.85;100070.91;5035495;28;20056;-88
2024/02/17 10:05:51;;;;;;;44.95;23.90;;;;;;;8.61;97.91;100042.47;5012416;28;20041;-85
2024/02/17 10:08:16;;;;;;;45.53;25.67;;;;;;;8.95;97.38;100077.63;5042869;28;20553;-85
2024/02/17 10:10:45;;;;;;;43.88;22.33;;;;;;;8.92;97.46;100083.38;5045818;28;20033;-84
2024/02/17 10:13:18;;;;;;;44.55;25.20;;;;;;;8.50;97.17;100013.81;5026486;28;20128;-85
2024/02/17 10:15:44;;;;;;;41.70;21.33;;;;;;;8.70;97.13;100076.66;5042662;28;20093;-86
2024/02/17 10:18:13;;;;;;;42.50;25.58;;;;;;;8.82;96.76;100087.50;5038658;28;20041;-85
2024/02/17 10:20:40;;;;;;;42.78;24.55;;;;;;;8.86;96.03;100097.53;5041156;28;20049;-86
2024/02/17 10:23:07;;;;;;;42.08;23.52;;;;;;;8.33;97.35;100018.75;5026376;28;20097;-86
2024/02/17 10:25:34;;;;;;;44.33;23.33;;;;;;;8.44;97.22;100038.59;5051821;28;20046;-85
2024/02/17 10:28:02;;;;;;;42.95;22.95;;;;;;;8.96;96.11;100113.91;5045379;28;20293;-86
2024/02/17 10:30:27;;;;;;;42.47;21.85;;;;;;;9.19;94.08;100109.97;5038070;28;20029;-86
2024/02/17 10:32:53;;;;;;;35.47;20.80;;;;;;;9.18;93.55;100106.47;5041429;28;20044;-85
2024/02/17 10:35:19;;;;;;;42.92;20.50;;;;;;;8.76;92.75;100033.22;5020482;28;20036;-86
2024/02/17 10:37:48;;;;;;;33.60;19.67;;;;;;;8.55;93.82;100022.00;5037388;28;20531;-85
2024/02/17 10:40:14;;;;;;;43.80;23.45;;;;;;;9.17;93.93;100104.03;5045574;28;20266;-85
2024/02/17 10:42:40;;;;;;;30.10;18.52;;;;;;;9.14;93.79;100113.25;5045704;28;20053;-85
2024/02/17 10:45:06;;;;;;;37.25;20.02;;;;;;;8.79;92.38;100058.63;5017678;28;20088;-86
2024/02/17 10:47:36;;;;;;;34.10;19.15;;;;;;;9.14;93.66;100115.91;5035220;28;20113;-86
2024/02/17 10:50:09;;;;;;;44.90;20.23;;;;;;;9.07;92.13;100115.94;5023123;28;20033;-86
2024/02/17 10:52:43;;;;;;;31.90;18.02;;;;;;;9.20;90.12;100115.06;5039072;28;20033;-86
2024/02/17 10:55:12;;;;;;;35.63;18.42;;;;;;;8.97;89.50;100099.56;5012642;28;20485;-87
2024/02/17 10:57:44;;;;;;;32.05;18.02;;;;;;;9.28;89.58;100114.03;5030356;28;20113;-88
2024/02/17 11:00:11;;;;;;;35.97;19.48;;;;;;;8.86;90.05;100067.41;5027801;28;20029;-88
2024/02/17 11:02:39;;;;;;;37.53;19.33;;;;;;;9.27;91.20;100128.38;4997907;28;20041;-88
2024/02/17 11:05:07;;;;;;;31.20;17.27;;;;;;;9.46;90.47;100154.97;5014682;28;20033;-87
2024/02/17 11:07:33;;;;;;;32.13;18.20;;;;;;;9.30;90.91;100135.97;4995931;28;20084;-88
2024/02/17 11:10:05;;;;;;;33.85;20.38;;;;;;;9.37;89.84;100158.09;4992761;28;20591;-88
2024/02/17 11:12:41;;;;;;;31.77;18.25;;;;;;;9.59;90.00;100152.28;4998714;28;20536;-87
2024/02/17 11:15:11;;;;;;;31.23;17.92;;;;;;;9.61;88.77;100146.75;5027250;28;20052;-88
2024/02/17 11:17:40;;;;;;;28.95;17.20;;;;;;;9.22;88.71;100126.34;5032188;28;20060;-88
2024/02/17 11:20:14;;;;;;;31.17;18.70;;;;;;;9.52;88.88;100158.66;5030243;28;20037;-87